sensor_id;sensor_type;location;lat;lon;timestamp;pressure;altitude;pressure_sealevel;temperature;humidity
63694;BME280;49839;51.798;10.954;2023-05-21T11:28:31;99173.19;;;25.28;nan
63694;BME280;49839;51.798;10.954;2023-05-21T11:31:23;99162.78;;;25.48;nan
63694;BME280;49839;51.798;10.954;2023-05-21T11:34:07;99164.72;;;25.62;nan
63694;BME280;49839;51.798;10.954;2023-05-21T11:36:35;99160.53;;;25.59;nan
63694;BME280;49839;51.798;10.954;2023-05-21T11:39:07;99163.31;;;25.74;nan
63694;BME280;49839;51.798;10.954;2023-05-21T11:41:49;99164.16;;;25.75;nan
63694;BME280;49839;51.798;10.954;2023-05-21T11:47:03;99153.47;;;26.04;nan
63694;BME280;49839;51.798;10.954;2023-05-21T11:49:31;99154.91;;;26.15;nan
63694;BME280;49839;51.798;10.954;2023-05-21T11:52:00;99153.94;;;26.45;nan
63694;BME280;49839;51.798;10.954;2023-05-21T11:54:29;99146.69;;;26.61;nan
63694;BME280;49839;51.798;10.954;2023-05-21T11:56:59;99150.69;;;26.65;nan
63694;BME280;49839;51.798;10.954;2023-05-21T11:59:29;99153.13;;;26.75;nan
63694;BME280;49839;51.798;10.954;2023-05-21T12:01:59;99151.53;;;26.80;nan
63694;BME280;49839;51.798;10.954;2023-05-21T12:04:28;99153.50;;;26.86;nan
63694;BME280;49839;51.798;10.954;2023-05-21T12:06:56;99153.00;;;26.97;nan
63694;BME280;49839;51.798;10.954;2023-05-21T12:09:24;99158.34;;;27.06;nan
63694;BME280;49839;51.798;10.954;2023-05-21T12:11:52;99142.28;;;27.19;nan
63694;BME280;49839;51.798;10.954;2023-05-21T12:14:20;99145.91;;;27.26;nan
63694;BME280;49839;51.798;10.954;2023-05-21T12:16:50;99148.81;;;27.10;nan
63694;BME280;49839;51.798;10.954;2023-05-21T12:19:17;99143.88;;;26.98;nan
63694;BME280;49839;51.798;10.954;2023-05-21T12:21:45;99136.41;;;27.00;nan
63694;BME280;49839;51.798;10.954;2023-05-21T12:24:14;99136.31;;;27.09;nan
63694;BME280;49839;51.798;10.954;2023-05-21T12:26:42;99127.06;;;27.03;nan
63694;BME280;49839;51.798;10.954;2023-05-21T12:29:11;99129.25;;;27.08;nan
63694;BME280;49839;51.798;10.954;2023-05-21T12:31:46;99122.06;;;27.00;nan
63694;BME280;49839;51.798;10.954;2023-05-21T12:34:36;99126.06;;;26.89;nan
63694;BME280;49839;51.798;10.954;2023-05-21T12:37:05;99117.47;;;27.00;nan
63694;BME280;49839;51.798;10.954;2023-05-21T12:39:36;99132.59;;;26.95;nan
63694;BME280;49839;51.798;10.954;2023-05-21T12:42:05;99110.56;;;26.98;nan
63694;BME280;49839;51.798;10.954;2023-05-21T12:44:32;99122.91;;;26.86;nan
63694;BME280;49839;51.798;10.954;2023-05-21T12:47:02;99122.25;;;26.84;nan
63694;BME280;49839;51.798;10.954;2023-05-21T12:49:35;99117.16;;;26.74;nan
63694;BME280;49839;51.798;10.954;2023-05-21T12:52:04;99121.50;;;26.75;nan
63694;BME280;49839;51.798;10.954;2023-05-21T12:54:35;99124.41;;;26.73;nan
63694;BME280;49839;51.798;10.954;2023-05-21T12:57:13;99120.19;;;26.71;nan
63694;BME280;49839;51.798;10.954;2023-05-21T12:59:48;99116.84;;;26.69;nan
63694;BME280;49839;51.798;10.954;2023-05-21T13:02:20;99120.94;;;26.65;nan
63694;BME280;49839;51.798;10.954;2023-05-21T13:04:53;99114.91;;;26.48;nan
63694;BME280;49839;51.798;10.954;2023-05-21T13:07:22;99112.75;;;26.43;nan
63694;BME280;49839;51.798;10.954;2023-05-21T13:09:50;99119.28;;;26.49;nan
63694;BME280;49839;51.798;10.954;2023-05-21T13:12:19;99118.75;;;26.54;nan
63694;BME280;49839;51.798;10.954;2023-05-21T13:14:48;99115.34;;;26.52;nan
63694;BME280;49839;51.798;10.954;2023-05-21T13:17:16;99109.03;;;26.44;nan
63694;BME280;49839;51.798;10.954;2023-05-21T13:20:05;99104.88;;;26.34;nan
63694;BME280;49839;51.798;10.954;2023-05-21T13:22:35;99113.19;;;26.32;nan
63694;BME280;49839;51.798;10.954;2023-05-21T13:25:07;99108.91;;;26.23;nan
63694;BME280;49839;51.798;10.954;2023-05-21T13:27:35;99104.53;;;26.22;nan
63694;BME280;49839;51.798;10.954;2023-05-21T13:30:04;99095.28;;;26.16;nan
63694;BME280;49839;51.798;10.954;2023-05-21T13:32:32;99100.38;;;25.97;nan
63694;BME280;49839;51.798;10.954;2023-05-21T13:35:00;99096.66;;;25.98;nan
63694;BME280;49839;51.798;10.954;2023-05-21T13:37:30;99095.88;;;25.89;nan
63694;BME280;49839;51.798;10.954;2023-05-21T13:39:57;99092.59;;;25.79;nan
63694;BME280;49839;51.798;10.954;2023-05-21T13:42:25;99092.13;;;25.75;nan
63694;BME280;49839;51.798;10.954;2023-05-21T13:44:52;99087.28;;;25.62;nan
63694;BME280;49839;51.798;10.954;2023-05-21T13:47:20;99086.47;;;25.62;nan
63694;BME280;49839;51.798;10.954;2023-05-21T13:49:48;99090.69;;;25.64;nan
63694;BME280;49839;51.798;10.954;2023-05-21T13:52:16;99078.47;;;25.69;nan
63694;BME280;49839;51.798;10.954;2023-05-21T13:54:45;99087.06;;;25.72;nan
63694;BME280;49839;51.798;10.954;2023-05-21T13:57:13;99088.25;;;25.70;nan
63694;BME280;49839;51.798;10.954;2023-05-21T13:59:41;99078.81;;;25.74;nan
63694;BME280;49839;51.798;10.954;2023-05-21T14:02:09;99088.25;;;25.70;nan
63694;BME280;49839;51.798;10.954;2023-05-21T14:04:37;99080.13;;;25.78;nan
63694;BME280;49839;51.798;10.954;2023-05-21T14:07:05;99077.84;;;25.89;nan
63694;BME280;49839;51.798;10.954;2023-05-21T14:09:33;99078.88;;;26.03;nan
63694;BME280;49839;51.798;10.954;2023-05-21T14:12:03;99076.53;;;26.00;nan
63694;BME280;49839;51.798;10.954;2023-05-21T14:14:32;99075.31;;;25.88;nan
63694;BME280;49839;51.798;10.954;2023-05-21T14:17:00;99072.44;;;25.89;nan
63694;BME280;49839;51.798;10.954;2023-05-21T14:19:27;99076.63;;;25.92;nan
63694;BME280;49839;51.798;10.954;2023-05-21T14:21:55;99074.47;;;25.87;nan
63694;BME280;49839;51.798;10.954;2023-05-21T14:24:25;99071.31;;;25.84;nan
63694;BME280;49839;51.798;10.954;2023-05-21T14:26:52;99076.59;;;25.77;nan
63694;BME280;49839;51.798;10.954;2023-05-21T14:29:21;99074.44;;;25.73;nan
63694;BME280;49839;51.798;10.954;2023-05-21T14:31:49;99077.97;;;25.73;nan
63694;BME280;49839;51.798;10.954;2023-05-21T14:34:17;99069.03;;;25.73;nan
63694;BME280;49839;51.798;10.954;2023-05-21T14:36:44;99069.19;;;25.71;nan
63694;BME280;49839;51.798;10.954;2023-05-21T14:39:12;99064.63;;;25.72;nan
63694;BME280;49839;51.798;10.954;2023-05-21T14:41:40;99068.66;;;25.76;nan
63694;BME280;49839;51.798;10.954;2023-05-21T14:44:08;99066.16;;;25.74;nan
63694;BME280;49839;51.798;10.954;2023-05-21T14:46:37;99071.22;;;25.69;nan
63694;BME280;49839;51.798;10.954;2023-05-21T14:49:05;99062.13;;;25.70;nan
63694;BME280;49839;51.798;10.954;2023-05-21T14:51:32;99058.34;;;25.79;nan
63694;BME280;49839;51.798;10.954;2023-05-21T14:54:00;99070.19;;;25.78;nan
63694;BME280;49839;51.798;10.954;2023-05-21T14:56:28;99067.81;;;25.75;nan
63694;BME280;49839;51.798;10.954;2023-05-21T14:58:55;99059.09;;;25.73;nan
63694;BME280;49839;51.798;10.954;2023-05-21T15:01:23;99056.53;;;25.72;nan
63694;BME280;49839;51.798;10.954;2023-05-21T15:03:52;99064.53;;;25.65;nan
63694;BME280;49839;51.798;10.954;2023-05-21T15:06:22;99064.34;;;25.66;nan
63694;BME280;49839;51.798;10.954;2023-05-21T15:08:50;99061.16;;;25.63;nan
63694;BME280;49839;51.798;10.954;2023-05-21T15:11:17;99048.16;;;25.66;nan
63694;BME280;49839;51.798;10.954;2023-05-21T15:13:45;99056.06;;;25.68;nan
63694;BME280;49839;51.798;10.954;2023-05-21T15:16:13;99055.22;;;25.67;nan
63694;BME280;49839;51.798;10.954;2023-05-21T15:18:42;99059.19;;;25.80;nan
63694;BME280;49839;51.798;10.954;2023-05-21T15:21:11;99058.28;;;25.87;nan
63694;BME280;49839;51.798;10.954;2023-05-21T15:23:39;99052.69;;;25.89;nan
63694;BME280;49839;51.798;10.954;2023-05-21T15:26:07;99052.25;;;26.00;nan
63694;BME280;49839;51.798;10.954;2023-05-21T15:28:35;99048.25;;;26.11;nan
63694;BME280;49839;51.798;10.954;2023-05-21T15:31:02;99048.31;;;25.88;nan
63694;BME280;49839;51.798;10.954;2023-05-21T15:33:30;99060.06;;;25.72;nan
63694;BME280;49839;51.798;10.954;2023-05-21T15:35:58;99051.69;;;25.67;nan
63694;BME280;49839;51.798;10.954;2023-05-21T15:38:27;99049.53;;;25.62;nan
63694;BME280;49839;51.798;10.954;2023-05-21T15:40:55;99046.66;;;25.64;nan
63694;BME280;49839;51.798;10.954;2023-05-21T15:43:23;99042.44;;;25.61;nan
63694;BME280;49839;51.798;10.954;2023-05-21T15:45:51;99041.50;;;25.54;nan
63694;BME280;49839;51.798;10.954;2023-05-21T15:48:19;99041.72;;;25.67;nan
63694;BME280;49839;51.798;10.954;2023-05-21T15:50:48;99044.84;;;25.79;nan
63694;BME280;49839;51.798;10.954;2023-05-21T15:53:16;99046.09;;;25.91;nan
63694;BME280;49839;51.798;10.954;2023-05-21T15:55:45;99046.75;;;25.93;nan
63694;BME280;49839;51.798;10.954;2023-05-21T15:58:13;99046.94;;;25.92;nan
63694;BME280;49839;51.798;10.954;2023-05-21T16:00:40;99055.78;;;26.01;nan
63694;BME280;49839;51.798;10.954;2023-05-21T16:03:08;99051.00;;;25.88;nan
63694;BME280;49839;51.798;10.954;2023-05-21T16:05:37;99038.63;;;25.93;nan
63694;BME280;49839;51.798;10.954;2023-05-21T16:08:05;99040.22;;;25.88;nan
63694;BME280;49839;51.798;10.954;2023-05-21T16:10:32;99038.19;;;25.90;nan
63694;BME280;49839;51.798;10.954;2023-05-21T16:13:01;99036.13;;;25.77;nan
63694;BME280;49839;51.798;10.954;2023-05-21T16:15:29;99038.19;;;25.67;nan
63694;BME280;49839;51.798;10.954;2023-05-21T16:17:57;99035.19;;;25.62;nan
63694;BME280;49839;51.798;10.954;2023-05-21T16:20:34;99026.75;;;25.65;nan
63694;BME280;49839;51.798;10.954;2023-05-21T16:23:01;99029.53;;;25.57;nan
63694;BME280;49839;51.798;10.954;2023-05-21T16:25:31;99025.25;;;25.62;nan
63694;BME280;49839;51.798;10.954;2023-05-21T16:28:03;99022.28;;;25.57;nan
63694;BME280;49839;51.798;10.954;2023-05-21T16:30:30;99022.88;;;25.45;nan
63694;BME280;49839;51.798;10.954;2023-05-21T16:32:58;99022.69;;;25.46;nan
63694;BME280;49839;51.798;10.954;2023-05-21T16:35:29;99030.31;;;25.43;nan
63694;BME280;49839;51.798;10.954;2023-05-21T16:37:57;99018.78;;;25.49;nan
63694;BME280;49839;51.798;10.954;2023-05-21T16:40:25;99016.94;;;25.49;nan
63694;BME280;49839;51.798;10.954;2023-05-21T16:42:52;99022.22;;;25.43;nan
63694;BME280;49839;51.798;10.954;2023-05-21T16:45:31;99022.94;;;25.36;nan
63694;BME280;49839;51.798;10.954;2023-05-21T16:48:04;99017.53;;;25.36;nan
63694;BME280;49839;51.798;10.954;2023-05-21T16:50:32;99022.94;;;25.36;nan
63694;BME280;49839;51.798;10.954;2023-05-21T16:53:00;99025.16;;;25.33;nan
63694;BME280;49839;51.798;10.954;2023-05-21T16:55:29;99020.41;;;25.35;nan
63694;BME280;49839;51.798;10.954;2023-05-21T16:57:57;99018.50;;;25.21;nan
63694;BME280;49839;51.798;10.954;2023-05-21T17:00:26;99028.69;;;25.10;nan
63694;BME280;49839;51.798;10.954;2023-05-21T17:02:54;99025.19;;;25.02;nan
63694;BME280;49839;51.798;10.954;2023-05-21T17:05:22;99029.09;;;24.99;nan
63694;BME280;49839;51.798;10.954;2023-05-21T17:07:51;99033.16;;;24.95;nan
63694;BME280;49839;51.798;10.954;2023-05-21T17:10:18;99030.31;;;24.89;nan
63694;BME280;49839;51.798;10.954;2023-05-21T17:12:46;99032.06;;;24.81;nan
63694;BME280;49839;51.798;10.954;2023-05-21T17:15:14;99029.56;;;24.72;nan
63694;BME280;49839;51.798;10.954;2023-05-21T17:17:43;99026.41;;;24.60;nan
63694;BME280;49839;51.798;10.954;2023-05-21T17:20:11;99022.94;;;24.51;nan
63694;BME280;49839;51.798;10.954;2023-05-21T17:22:39;99021.13;;;24.44;nan
63694;BME280;49839;51.798;10.954;2023-05-21T17:25:07;99035.47;;;24.36;nan
63694;BME280;49839;51.798;10.954;2023-05-21T17:27:35;99027.22;;;24.29;nan
63694;BME280;49839;51.798;10.954;2023-05-21T17:30:04;99029.56;;;24.24;nan
63694;BME280;49839;51.798;10.954;2023-05-21T17:32:32;99029.59;;;24.16;nan
63694;BME280;49839;51.798;10.954;2023-05-21T17:35:01;99022.22;;;24.10;nan
63694;BME280;49839;51.798;10.954;2023-05-21T17:37:28;99028.13;;;24.05;nan
63694;BME280;49839;51.798;10.954;2023-05-21T17:39:56;99027.59;;;24.02;nan
63694;BME280;49839;51.798;10.954;2023-05-21T17:42:24;99032.50;;;23.98;nan
63694;BME280;49839;51.798;10.954;2023-05-21T17:44:52;99026.28;;;23.98;nan
63694;BME280;49839;51.798;10.954;2023-05-21T17:47:19;99023.94;;;23.95;nan
63694;BME280;49839;51.798;10.954;2023-05-21T17:49:47;99025.31;;;23.91;nan
63694;BME280;49839;51.798;10.954;2023-05-21T17:52:16;99020.25;;;23.88;nan
63694;BME280;49839;51.798;10.954;2023-05-21T17:54:43;99020.41;;;23.86;nan
63694;BME280;49839;51.798;10.954;2023-05-21T17:57:14;99020.41;;;23.86;nan
63694;BME280;49839;51.798;10.954;2023-05-21T17:59:45;99017.72;;;23.86;nan
63694;BME280;49839;51.798;10.954;2023-05-21T18:02:12;99018.94;;;23.84;nan
63694;BME280;49839;51.798;10.954;2023-05-21T18:04:40;99026.31;;;23.82;nan
63694;BME280;49839;51.798;10.954;2023-05-21T18:07:08;99025.00;;;23.77;nan
63694;BME280;49839;51.798;10.954;2023-05-21T18:09:37;99024.28;;;23.75;nan
63694;BME280;49839;51.798;10.954;2023-05-21T18:12:06;99023.81;;;23.72;nan
63694;BME280;49839;51.798;10.954;2023-05-21T18:14:34;99020.44;;;23.70;nan
63694;BME280;49839;51.798;10.954;2023-05-21T18:17:02;99025.50;;;23.65;nan
63694;BME280;49839;51.798;10.954;2023-05-21T18:19:31;99029.50;;;23.61;nan
63694;BME280;49839;51.798;10.954;2023-05-21T18:21:59;99034.22;;;23.59;nan
63694;BME280;49839;51.798;10.954;2023-05-21T18:24:27;99032.03;;;23.54;nan
63694;BME280;49839;51.798;10.954;2023-05-21T18:26:56;99035.75;;;23.45;nan
63694;BME280;49839;51.798;10.954;2023-05-21T18:29:24;99034.69;;;23.38;nan
63694;BME280;49839;51.798;10.954;2023-05-21T18:31:54;99032.38;;;23.35;nan
63694;BME280;49839;51.798;10.954;2023-05-21T18:34:23;99030.34;;;23.29;nan
63694;BME280;49839;51.798;10.954;2023-05-21T18:36:51;99029.16;;;23.23;nan
63694;BME280;49839;51.798;10.954;2023-05-21T18:39:20;99036.22;;;23.16;nan
63694;BME280;49839;51.798;10.954;2023-05-21T18:41:50;99037.34;;;23.05;nan
63694;BME280;49839;51.798;10.954;2023-05-21T18:44:38;99033.66;;;22.98;nan
63694;BME280;49839;51.798;10.954;2023-05-21T18:47:06;99040.31;;;22.86;nan
63694;BME280;49839;51.798;10.954;2023-05-21T18:49:34;99040.28;;;22.78;nan
63694;BME280;49839;51.798;10.954;2023-05-21T18:52:02;99031.56;;;22.67;nan
63694;BME280;49839;51.798;10.954;2023-05-21T18:54:30;99032.50;;;22.58;nan
63694;BME280;49839;51.798;10.954;2023-05-21T18:56:58;99037.19;;;22.48;nan
63694;BME280;49839;51.798;10.954;2023-05-21T18:59:29;99043.97;;;22.34;nan
63694;BME280;49839;51.798;10.954;2023-05-21T19:02:00;99039.94;;;22.22;nan
63694;BME280;49839;51.798;10.954;2023-05-21T19:04:28;99036.66;;;22.10;nan
63694;BME280;49839;51.798;10.954;2023-05-21T19:06:56;99043.78;;;22.02;nan
63694;BME280;49839;51.798;10.954;2023-05-21T19:09:24;99048.94;;;21.95;nan
63694;BME280;49839;51.798;10.954;2023-05-21T19:11:52;99053.75;;;21.83;nan
63694;BME280;49839;51.798;10.954;2023-05-21T19:14:19;99054.00;;;21.72;nan
63694;BME280;49839;51.798;10.954;2023-05-21T19:16:47;99053.41;;;21.60;nan
63694;BME280;49839;51.798;10.954;2023-05-21T19:19:16;99052.63;;;21.50;nan
63694;BME280;49839;51.798;10.954;2023-05-21T19:21:47;99058.78;;;21.43;nan
63694;BME280;49839;51.798;10.954;2023-05-21T19:24:15;99061.91;;;21.38;nan
63694;BME280;49839;51.798;10.954;2023-05-21T19:26:42;99065.06;;;21.33;nan
63694;BME280;49839;51.798;10.954;2023-05-21T19:29:10;99072.31;;;21.23;nan
63694;BME280;49839;51.798;10.954;2023-05-21T19:31:38;99075.44;;;21.19;nan
63694;BME280;49839;51.798;10.954;2023-05-21T19:34:07;99086.47;;;21.16;nan
63694;BME280;49839;51.798;10.954;2023-05-21T19:36:37;99080.72;;;21.10;nan
63694;BME280;49839;51.798;10.954;2023-05-21T19:39:18;99083.72;;;21.07;nan
63694;BME280;49839;51.798;10.954;2023-05-21T19:41:45;99081.47;;;21.03;nan
63694;BME280;49839;51.798;10.954;2023-05-21T19:44:13;99087.28;;;20.98;nan
63694;BME280;49839;51.798;10.954;2023-05-21T19:46:41;99089.59;;;20.93;nan
63694;BME280;49839;51.798;10.954;2023-05-21T19:49:08;99091.72;;;20.90;nan
63694;BME280;49839;51.798;10.954;2023-05-21T19:51:39;99092.16;;;20.85;nan
63694;BME280;49839;51.798;10.954;2023-05-21T19:54:06;99088.72;;;20.75;nan
63694;BME280;49839;51.798;10.954;2023-05-21T19:56:34;99090.28;;;20.68;nan
63694;BME280;49839;51.798;10.954;2023-05-21T19:59:02;99095.41;;;20.61;nan
63694;BME280;49839;51.798;10.954;2023-05-21T20:01:30;99096.84;;;20.55;nan
63694;BME280;49839;51.798;10.954;2023-05-21T20:04:00;99092.75;;;20.51;nan
63694;BME280;49839;51.798;10.954;2023-05-21T20:06:28;99090.22;;;20.50;nan
63694;BME280;49839;51.798;10.954;2023-05-21T20:08:58;99088.84;;;20.46;nan
63694;BME280;49839;51.798;10.954;2023-05-21T20:11:25;99094.31;;;20.44;nan
63694;BME280;49839;51.798;10.954;2023-05-21T20:13:53;99099.94;;;20.41;nan
63694;BME280;49839;51.798;10.954;2023-05-21T20:16:21;99106.59;;;20.37;nan
63694;BME280;49839;51.798;10.954;2023-05-21T20:18:49;99101.66;;;20.33;nan
63694;BME280;49839;51.798;10.954;2023-05-21T20:21:22;99103.25;;;20.25;nan
63694;BME280;49839;51.798;10.954;2023-05-21T20:23:51;99098.78;;;20.16;nan
63694;BME280;49839;51.798;10.954;2023-05-21T20:26:20;99099.34;;;20.10;nan
63694;BME280;49839;51.798;10.954;2023-05-21T20:28:48;99100.78;;;20.05;nan
63694;BME280;49839;51.798;10.954;2023-05-21T20:31:16;99094.31;;;19.97;nan
63694;BME280;49839;51.798;10.954;2023-05-21T20:33:43;99100.25;;;19.91;nan
63694;BME280;49839;51.798;10.954;2023-05-21T20:36:11;99104.47;;;19.84;nan
63694;BME280;49839;51.798;10.954;2023-05-21T20:38:40;99100.28;;;19.72;nan
63694;BME280;49839;51.798;10.954;2023-05-21T20:41:08;99101.69;;;19.66;nan
63694;BME280;49839;51.798;10.954;2023-05-21T20:43:37;99095.22;;;19.59;nan
63694;BME280;49839;51.798;10.954;2023-05-21T20:46:05;99090.41;;;19.53;nan
63694;BME280;49839;51.798;10.954;2023-05-21T20:48:33;99092.94;;;19.45;nan
63694;BME280;49839;51.798;10.954;2023-05-21T20:51:01;99089.00;;;19.39;nan
63694;BME280;49839;51.798;10.954;2023-05-21T20:53:29;99092.09;;;19.35;nan
63694;BME280;49839;51.798;10.954;2023-05-21T20:55:57;99085.31;;;19.31;nan
63694;BME280;49839;51.798;10.954;2023-05-21T20:58:27;99098.13;;;19.27;nan
63694;BME280;49839;51.798;10.954;2023-05-21T21:00:56;99095.03;;;19.22;nan
63694;BME280;49839;51.798;10.954;2023-05-21T21:03:23;99098.84;;;19.19;nan
63694;BME280;49839;51.798;10.954;2023-05-21T21:05:55;99092.63;;;19.19;nan
63694;BME280;49839;51.798;10.954;2023-05-21T21:08:26;99096.28;;;19.18;nan
63694;BME280;49839;51.798;10.954;2023-05-21T21:10:54;99100.22;;;19.14;nan
63694;BME280;49839;51.798;10.954;2023-05-21T21:13:21;99097.13;;;19.09;nan
63694;BME280;49839;51.798;10.954;2023-05-21T21:15:49;99103.56;;;19.06;nan
63694;BME280;49839;51.798;10.954;2023-05-21T21:18:18;99101.88;;;19.05;nan
63694;BME280;49839;51.798;10.954;2023-05-21T21:20:45;99109.19;;;19.03;nan
63694;BME280;49839;51.798;10.954;2023-05-21T21:23:15;99105.09;;;18.99;nan
63694;BME280;49839;51.798;10.954;2023-05-21T21:25:43;99111.88;;;18.93;nan
63694;BME280;49839;51.798;10.954;2023-05-21T21:28:10;99108.63;;;18.90;nan
63694;BME280;49839;51.798;10.954;2023-05-21T21:30:38;99105.34;;;18.86;nan
63694;BME280;49839;51.798;10.954;2023-05-21T21:33:06;99115.63;;;18.81;nan
63694;BME280;49839;51.798;10.954;2023-05-21T21:35:37;99112.78;;;18.73;nan
63694;BME280;49839;51.798;10.954;2023-05-21T21:38:05;99117.06;;;18.64;nan
63694;BME280;49839;51.798;10.954;2023-05-21T21:40:32;99118.59;;;18.57;nan
63694;BME280;49839;51.798;10.954;2023-05-21T21:43:00;99115.34;;;18.54;nan
63694;BME280;49839;51.798;10.954;2023-05-21T21:45:28;99120.25;;;18.49;nan
63694;BME280;49839;51.798;10.954;2023-05-21T21:47:55;99114.19;;;18.47;nan
63694;BME280;49839;51.798;10.954;2023-05-21T21:50:23;99119.81;;;18.44;nan
63694;BME280;49839;51.798;10.954;2023-05-21T21:52:52;99115.00;;;18.37;nan
63694;BME280;49839;51.798;10.954;2023-05-21T21:55:21;99120.16;;;18.29;nan
63694;BME280;49839;51.798;10.954;2023-05-21T21:57:49;99120.56;;;18.25;nan
63694;BME280;49839;51.798;10.954;2023-05-21T22:00:17;99115.59;;;18.20;nan
63694;BME280;49839;51.798;10.954;2023-05-21T22:02:44;99119.50;;;18.16;nan
63694;BME280;49839;51.798;10.954;2023-05-21T22:05:12;99109.97;;;18.13;nan
63694;BME280;49839;51.798;10.954;2023-05-21T22:07:41;99108.41;;;18.11;nan
63694;BME280;49839;51.798;10.954;2023-05-21T22:10:13;99110.63;;;18.06;nan
63694;BME280;49839;51.798;10.954;2023-05-21T22:12:43;99108.09;;;18.04;nan
63694;BME280;49839;51.798;10.954;2023-05-21T22:15:16;99107.63;;;17.99;nan
63694;BME280;49839;51.798;10.954;2023-05-21T22:17:45;99106.06;;;17.97;nan
63694;BME280;49839;51.798;10.954;2023-05-21T22:20:13;99102.81;;;17.93;nan
63694;BME280;49839;51.798;10.954;2023-05-21T22:22:43;99103.94;;;17.91;nan
63694;BME280;49839;51.798;10.954;2023-05-21T22:25:13;99100.53;;;17.89;nan
63694;BME280;49839;51.798;10.954;2023-05-21T22:27:40;99098.00;;;17.87;nan
63694;BME280;49839;51.798;10.954;2023-05-21T22:30:09;99102.38;;;17.88;nan
63694;BME280;49839;51.798;10.954;2023-05-21T22:32:37;99099.97;;;17.85;nan
63694;BME280;49839;51.798;10.954;2023-05-21T22:35:05;99099.25;;;17.83;nan
63694;BME280;49839;51.798;10.954;2023-05-21T22:37:33;99099.91;;;17.75;nan
63694;BME280;49839;51.798;10.954;2023-05-21T22:40:02;99097.38;;;17.74;nan
63694;BME280;49839;51.798;10.954;2023-05-21T22:42:33;99099.41;;;17.70;nan
63694;BME280;49839;51.798;10.954;2023-05-21T22:45:01;99093.75;;;17.64;nan
63694;BME280;49839;51.798;10.954;2023-05-21T22:47:29;99097.06;;;17.56;nan
63694;BME280;49839;51.798;10.954;2023-05-21T22:49:57;99091.25;;;17.51;nan
63694;BME280;49839;51.798;10.954;2023-05-21T22:52:29;99096.16;;;17.46;nan
63694;BME280;49839;51.798;10.954;2023-05-21T22:54:57;99101.84;;;17.41;nan
63694;BME280;49839;51.798;10.954;2023-05-21T22:57:26;99090.59;;;17.38;nan
63694;BME280;49839;51.798;10.954;2023-05-21T22:59:55;99095.34;;;17.34;nan
63694;BME280;49839;51.798;10.954;2023-05-21T23:02:22;99090.41;;;17.29;nan
63694;BME280;49839;51.798;10.954;2023-05-21T23:04:50;99092.34;;;17.27;nan
63694;BME280;49839;51.798;10.954;2023-05-21T23:07:18;99088.00;;;17.26;nan
63694;BME280;49839;51.798;10.954;2023-05-21T23:09:46;99101.41;;;17.25;nan
63694;BME280;49839;51.798;10.954;2023-05-21T23:12:17;99102.53;;;17.22;nan
63694;BME280;49839;51.798;10.954;2023-05-21T23:14:45;99097.44;;;17.19;nan
63694;BME280;49839;51.798;10.954;2023-05-21T23:17:14;99098.41;;;17.18;nan
63694;BME280;49839;51.798;10.954;2023-05-21T23:19:41;99094.91;;;17.18;nan
63694;BME280;49839;51.798;10.954;2023-05-21T23:22:09;99098.41;;;17.18;nan
63694;BME280;49839;51.798;10.954;2023-05-21T23:24:37;99094.19;;;17.16;nan
63694;BME280;49839;51.798;10.954;2023-05-21T23:27:05;99098.91;;;17.12;nan
63694;BME280;49839;51.798;10.954;2023-05-21T23:29:32;99083.91;;;17.11;nan
63694;BME280;49839;51.798;10.954;2023-05-21T23:32:00;99091.69;;;17.14;nan
63694;BME280;49839;51.798;10.954;2023-05-21T23:34:31;99089.59;;;17.18;nan
63694;BME280;49839;51.798;10.954;2023-05-21T23:36:59;99079.91;;;17.17;nan
63694;BME280;49839;51.798;10.954;2023-05-21T23:39:27;99089.84;;;17.15;nan
63694;BME280;49839;51.798;10.954;2023-05-21T23:41:55;99080.56;;;17.09;nan
63694;BME280;49839;51.798;10.954;2023-05-21T23:44:22;99084.56;;;17.03;nan
63694;BME280;49839;51.798;10.954;2023-05-21T23:46:50;99081.28;;;17.00;nan
63694;BME280;49839;51.798;10.954;2023-05-21T23:49:18;99087.97;;;16.94;nan
63694;BME280;49839;51.798;10.954;2023-05-21T23:51:47;99086.75;;;16.87;nan
63694;BME280;49839;51.798;10.954;2023-05-21T23:54:16;99092.63;;;16.81;nan
63694;BME280;49839;51.798;10.954;2023-05-21T23:56:44;99086.94;;;16.74;nan
63694;BME280;49839;51.798;10.954;2023-05-21T23:59:12;99084.63;;;16.70;nan
